Time;durP1;ratioP1;P1;durP2;ratioP2;P2;SDS_P1;SDS_P2;PMS_P1;PMS_P2;Temp;Humidity;BMP_temperature;BMP_pressure;BME280_temperature;BME280_humidity;BME280_pressure;Samples;Min_cycle;Max_cycle;Signal;HPM_P1;HPM_P2
2022/09/11 00:01:14;;;;;;;18.85;13.68;;;;;;;12.52;100.00;99297.57;1687656;84;20908;-59
2022/09/11 00:03:42;;;;;;;16.87;12.53;;;;;;;12.51;100.00;99299.80;1702899;83;20906;-59
2022/09/11 00:06:12;;;;;;;16.57;13.08;;;;;;;12.45;100.00;99298.88;1715152;83;21407;-59
2022/09/11 00:08:41;;;;;;;16.52;12.95;;;;;;;12.44;100.00;99298.52;1712374;83;20954;-60
2022/09/11 00:11:17;;;;;;;16.12;13.48;;;;;;;12.44;100.00;99298.04;1708653;83;21033;-59
2022/09/11 00:13:47;;;;;;;18.50;13.47;;;;;;;12.42;100.00;99294.66;1711742;83;20989;-59
2022/09/11 00:16:28;;;;;;;18.67;13.90;;;;;;;12.41;100.00;99298.23;1715119;83;21025;-59
2022/09/11 00:19:01;;;;;;;19.75;15.55;;;;;;;12.42;100.00;99300.37;1713806;83;20923;-60
2022/09/11 00:21:28;;;;;;;22.15;15.70;;;;;;;12.40;100.00;99296.53;1686054;84;20998;-59
2022/09/11 00:23:55;;;;;;;;;;;;;;;12.40;100.00;99296.53;1718143;83;21285;-59
2022/09/11 00:26:23;;;;;;;23.92;17.87;;;;;;;12.38;100.00;99298.86;1681399;84;20456;-60
2022/09/11 00:28:51;;;;;;;21.80;17.37;;;;;;;12.37;100.00;99293.27;1713532;82;21000;-59
2022/09/11 00:31:25;;;;;;;22.82;16.80;;;;;;;12.37;100.00;99290.64;1683132;84;20969;-59
2022/09/11 00:33:51;;;;;;;23.92;17.15;;;;;;;12.36;100.00;99296.83;1698786;82;21069;-60
2022/09/11 00:36:22;;;;;;;24.77;18.10;;;;;;;12.34;100.00;99288.22;1697172;83;21062;-60
2022/09/11 00:38:49;;;;;;;22.32;17.07;;;;;;;12.39;100.00;99287.48;1701008;83;21497;-59
2022/09/11 00:41:18;;;;;;;;;;;;;;;12.39;100.00;99288.78;1703681;83;21475;-60
2022/09/11 00:44:04;;;;;;;22.35;17.02;;;;;;;12.41;100.00;99289.54;1700568;82;20099;-59
2022/09/11 00:46:47;;;;;;;21.40;15.77;;;;;;;12.37;100.00;99289.34;1701088;83;20902;-59
2022/09/11 00:49:31;;;;;;;20.12;15.95;;;;;;;12.33;100.00;99283.94;1721042;83;21047;-59
2022/09/11 00:52:18;;;;;;;19.23;15.20;;;;;;;12.40;100.00;99279.52;1710028;83;20970;-59
2022/09/11 00:54:56;;;;;;;17.70;15.38;;;;;;;12.44;100.00;99281.49;1613359;87;20980;-59
2022/09/11 00:57:28;;;;;;;15.63;13.85;;;;;;;12.42;100.00;99274.19;1604788;86;20983;-59
2022/09/11 00:59:57;;;;;;;16.90;14.83;;;;;;;12.38;100.00;99275.30;1648493;85;20995;-60
2022/09/11 01:02:26;;;;;;;17.45;13.55;;;;;;;12.37;100.00;99277.55;1641754;85;21066;-60
2022/09/11 01:04:53;;;;;;;16.90;13.93;;;;;;;12.41;100.00;99276.45;1630455;86;20943;-59
2022/09/11 01:07:22;;;;;;;19.57;14.00;;;;;;;12.42;100.00;99275.50;1660794;84;20977;-60
2022/09/11 01:09:50;;;;;;;16.77;13.95;;;;;;;12.31;100.00;99263.91;1656453;84;20908;-60
2022/09/11 01:12:42;;;;;;;16.15;13.53;;;;;;;12.37;100.00;99267.09;1664769;84;21571;-60
2022/09/11 01:15:33;;;;;;;17.32;12.98;;;;;;;12.29;100.00;99255.33;1665214;84;21151;-59
2022/09/11 01:18:08;;;;;;;19.75;12.88;;;;;;;12.44;100.00;99263.16;1662540;84;20952;-59
2022/09/11 01:20:55;;;;;;;14.45;12.73;;;;;;;12.50;100.00;99264.09;1664609;85;21955;-59
2022/09/11 01:23:36;;;;;;;14.58;12.75;;;;;;;12.39;100.00;99266.53;1615045;87;28063;-59
2022/09/11 01:26:25;;;;;;;15.30;12.18;;;;;;;12.37;100.00;99259.23;1620580;87;21550;-59
2022/09/11 01:29:14;;;;;;;15.13;12.28;;;;;;;12.28;100.00;99246.25;1619044;87;21129;-59
2022/09/11 01:32:06;;;;;;;15.10;12.03;;;;;;;12.36;100.00;99260.18;1618236;87;20965;-59
2022/09/11 01:34:52;;;;;;;17.60;12.30;;;;;;;12.33;100.00;99249.90;1611514;88;21012;-59
2022/09/11 01:37:23;;;;;;;13.15;11.73;;;;;;;12.40;100.00;99265.11;1602017;87;20942;-59
2022/09/11 01:39:55;;;;;;;17.85;12.13;;;;;;;12.26;100.00;99242.40;1615396;87;20955;-59
2022/09/11 01:42:24;;;;;;;12.68;10.58;;;;;;;12.31;100.00;99261.29;1607814;87;21143;-59
2022/09/11 01:44:54;;;;;;;16.17;12.25;;;;;;;12.31;100.00;99261.29;1609934;87;21109;-59
2022/09/11 01:47:22;;;;;;;15.03;11.63;;;;;;;12.28;100.00;99261.48;1593395;88;21111;-59
2022/09/11 01:50:10;;;;;;;12.63;10.72;;;;;;;12.27;100.00;99265.05;1612774;87;21072;-59
2022/09/11 01:52:51;;;;;;;12.30;9.98;;;;;;;12.27;100.00;99259.81;1612894;87;20962;-59
2022/09/11 01:55:23;;;;;;;11.63;9.05;;;;;;;12.25;100.00;99266.07;1607350;87;21459;-59
2022/09/11 01:58:14;;;;;;;13.50;10.20;;;;;;;12.23;100.00;99260.91;1615434;87;21678;-60
2022/09/11 02:00:43;;;;;;;16.00;10.38;;;;;;;12.23;100.00;99250.45;1643233;85;20927;-59
2022/09/11 02:03:21;;;;;;;11.08;9.75;;;;;;;12.24;100.00;99260.00;1686191;83;20918;-59
2022/09/11 02:05:57;;;;;;;11.00;9.23;;;;;;;12.23;100.00;99253.06;1701956;82;20966;-59
2022/09/11 02:08:38;;;;;;;11.00;8.18;;;;;;;12.23;100.00;99253.06;1709278;83;21105;-59
2022/09/11 02:11:09;;;;;;;9.68;7.85;;;;;;;12.06;100.00;99237.56;1703986;83;20922;-60
2022/09/11 02:14:20;;;;;;;9.38;8.15;;;;;;;12.06;100.00;99237.56;1672157;84;21484;-60
2022/09/11 02:16:51;;;;;;;13.25;8.50;;;;;;;12.14;100.00;99257.56;1711128;81;20938;-59
2022/09/11 02:19:26;;;;;;;10.15;8.20;;;;;;;12.09;100.00;99255.69;1695319;83;21011;-59
2022/09/11 02:21:53;;;;;;;10.70;8.80;;;;;;;12.07;100.00;99254.93;1699413;83;21092;-59
2022/09/11 02:24:26;;;;;;;12.75;9.23;;;;;;;12.10;100.00;99257.39;1702835;83;20929;-59
2022/09/11 02:26:57;;;;;;;10.48;9.05;;;;;;;12.08;100.00;99255.33;1707645;83;20928;-59
2022/09/11 02:29:23;;;;;;;12.88;9.05;;;;;;;12.10;100.00;99254.77;1707224;83;20975;-59
2022/09/11 02:31:51;;;;;;;10.35;8.93;;;;;;;12.09;100.00;99250.45;1718220;82;22095;-59
2022/09/11 02:34:22;;;;;;;11.73;10.50;;;;;;;12.08;100.00;99248.78;1709053;82;21508;-59
2022/09/11 02:37:15;;;;;;;13.13;10.58;;;;;;;12.07;100.00;99251.88;1712577;83;20966;-60
2022/09/11 02:40:05;;;;;;;13.22;10.35;;;;;;;12.06;100.00;99251.48;1701823;83;20945;-59
2022/09/11 02:43:12;;;;;;;12.50;10.43;;;;;;;12.19;100.00;99251.58;1701807;82;20946;-60
2022/09/11 02:45:53;;;;;;;;;;;;;;;12.09;100.00;99253.06;1704675;83;20961;-60
2022/09/11 02:48:35;;;;;;;12.23;10.48;;;;;;;12.08;100.00;99255.33;1694254;82;21078;-60
2022/09/11 02:51:44;;;;;;;12.37;9.95;;;;;;;12.02;100.00;99243.92;1714263;81;20959;-59
2022/09/11 02:54:53;;;;;;;12.80;10.10;;;;;;;12.05;100.00;99251.59;1688291;84;21511;-60
2022/09/11 02:57:33;;;;;;;13.75;10.55;;;;;;;12.01;100.00;99251.38;1702484;83;20934;-60
2022/09/11 03:00:04;;;;;;;11.90;10.23;;;;;;;12.01;100.00;99252.69;1698057;82;21701;-60
2022/09/11 03:02:36;;;;;;;11.88;10.18;;;;;;;12.01;100.00;99244.37;1694293;83;21059;-60
2022/09/11 03:05:05;;;;;;;12.70;10.18;;;;;;;12.03;100.00;99250.83;1701565;83;20947;-59
2022/09/11 03:07:32;;;;;;;12.45;9.85;;;;;;;12.03;100.00;99250.83;1677288;84;21497;-59
2022/09/11 03:09:58;;;;;;;12.82;10.53;;;;;;;12.03;100.00;99250.83;1701660;83;26871;-60
2022/09/11 03:12:28;;;;;;;14.67;10.50;;;;;;;12.03;100.00;99250.83;1714147;83;20938;-60
2022/09/11 03:14:56;;;;;;;15.05;10.72;;;;;;;12.04;100.00;99252.50;1676553;83;21779;-59
2022/09/11 03:17:24;;;;;;;;;;;;;;;12.06;100.00;99254.56;1690058;84;20978;-60
2022/09/11 03:19:51;;;;;;;12.85;9.58;;;;;;;12.04;100.00;99255.12;1682310;84;20508;-59
2022/09/11 03:22:17;;;;;;;10.90;9.28;;;;;;;12.01;100.00;99252.69;1683556;83;20919;-60
2022/09/11 03:24:44;;;;;;;12.07;9.30;;;;;;;12.02;100.00;99255.70;1693199;83;20976;-60
2022/09/11 03:27:11;;;;;;;13.63;10.00;;;;;;;12.00;100.00;99257.56;1689817;82;21153;-59
2022/09/11 03:29:37;;;;;;;12.30;9.63;;;;;;;12.03;100.00;99261.30;1701369;83;21041;-59
2022/09/11 03:32:04;;;;;;;13.10;9.73;;;;;;;12.08;100.00;99258.78;1702744;83;21017;-60
2022/09/11 03:34:31;;;;;;;10.10;9.08;;;;;;;12.07;100.00;99253.63;1701345;83;20937;-59
2022/09/11 03:36:59;;;;;;;13.85;9.08;;;;;;;12.08;100.00;99261.86;1715107;83;21104;-59
2022/09/11 03:39:25;;;;;;;12.15;9.75;;;;;;;12.06;100.00;99261.95;1709931;83;21044;-59
2022/09/11 03:41:53;;;;;;;11.68;8.85;;;;;;;12.08;100.00;99259.25;1691167;84;21445;-59
2022/09/11 03:44:20;;;;;;;;;;;;;;;12.07;100.00;99253.63;1685701;84;20958;-59
2022/09/11 03:46:46;;;;;;;;;;;;;;;12.06;100.00;99256.71;1699152;82;20474;-59
2022/09/11 03:49:14;;;;;;;11.00;9.17;;;;;;;12.02;100.00;99258.32;1694760;82;20145;-59
2022/09/11 03:51:40;;;;;;;14.80;10.23;;;;;;;12.00;100.00;99267.55;1695786;84;21493;-59
2022/09/11 03:54:07;;;;;;;12.58;9.65;;;;;;;11.99;100.00;99265.05;1714614;83;20910;-59
2022/09/11 03:56:35;;;;;;;12.20;9.60;;;;;;;11.96;100.00;99270.44;1699110;83;21005;-59
2022/09/11 03:59:02;;;;;;;14.90;10.58;;;;;;;11.96;100.00;99275.67;1697585;83;21186;-60
2022/09/11 04:01:29;;;;;;;16.42;9.80;;;;;;;11.96;100.00;99275.67;1697340;83;20937;-59
2022/09/11 04:03:56;;;;;;;12.05;10.70;;;;;;;12.02;100.00;99274.02;1702008;83;21856;-59
2022/09/11 04:06:22;;;;;;;13.23;10.33;;;;;;;12.02;100.00;99272.70;1697459;83;20926;-59
2022/09/11 04:08:50;;;;;;;14.15;10.85;;;;;;;12.01;100.00;99277.55;1704396;83;21666;-59
2022/09/11 04:11:16;;;;;;;12.87;9.93;;;;;;;12.03;100.00;99271.77;1695663;83;20910;-59
2022/09/11 04:13:43;;;;;;;15.23;9.75;;;;;;;12.04;100.00;99269.52;1688878;84;20946;-59
2022/09/11 04:16:17;;;;;;;13.18;11.00;;;;;;;12.03;100.00;99274.38;1672419;84;22101;-59
2022/09/11 04:18:45;;;;;;;16.20;10.90;;;;;;;12.07;100.00;99271.94;1707468;83;20987;-59
2022/09/11 04:21:15;;;;;;;12.90;9.60;;;;;;;12.12;100.00;99279.05;1703988;83;20961;-59
2022/09/11 04:23:41;;;;;;;12.90;8.60;;;;;;;12.12;100.00;99279.05;1701557;83;20942;-60
2022/09/11 04:26:18;;;;;;;12.95;9.98;;;;;;;12.04;100.00;99265.59;1704139;83;20993;-60
2022/09/11 04:28:45;;;;;;;9.73;8.38;;;;;;;12.08;100.00;99277.56;1696283;83;21895;-59
2022/09/11 04:31:14;;;;;;;10.53;8.13;;;;;;;12.04;100.00;99283.91;1702227;83;20942;-60
2022/09/11 04:33:41;;;;;;;8.90;8.03;;;;;;;12.01;100.00;99278.86;1703616;82;20949;-59
2022/09/11 04:36:12;;;;;;;14.85;8.30;;;;;;;12.00;100.00;99274.56;1708561;82;21016;-59
2022/09/11 04:38:42;;;;;;;8.98;6.90;;;;;;;11.85;100.00;99264.09;1687008;83;21025;-60
2022/09/11 04:41:09;;;;;;;8.58;7.20;;;;;;;11.85;100.00;99264.09;1688388;84;21060;-59
2022/09/11 04:43:38;;;;;;;9.08;7.08;;;;;;;11.95;100.00;99276.62;1685118;84;21001;-59
2022/09/11 04:46:11;;;;;;;16.50;7.58;;;;;;;11.98;100.00;99273.81;1684218;84;21007;-59
2022/09/11 04:48:46;;;;;;;9.35;6.87;;;;;;;11.98;100.00;99273.81;1685232;84;21051;-59
2022/09/11 04:51:31;;;;;;;8.33;7.08;;;;;;;11.85;100.00;99258.86;1680548;83;20973;-59
2022/09/11 04:53:59;;;;;;;8.18;6.78;;;;;;;11.99;100.00;99275.52;1694087;82;21543;-60
2022/09/11 04:56:29;;;;;;;9.35;7.20;;;;;;;12.02;100.00;99275.33;1687472;83;20934;-59
2022/09/11 04:59:04;;;;;;;11.70;6.58;;;;;;;11.99;100.00;99276.82;1704293;82;20949;-59
2022/09/11 05:01:32;;;;;;;7.10;6.40;;;;;;;11.86;100.00;99265.77;1702888;83;20995;-59
2022/09/11 05:04:00;;;;;;;8.78;6.55;;;;;;;11.99;100.00;99282.05;1708385;83;20959;-60
2022/09/11 05:06:29;;;;;;;;;;;;;;;12.01;100.00;99281.47;1712231;83;21738;-59
2022/09/11 05:09:02;;;;;;;8.60;6.55;;;;;;;11.97;100.00;99285.22;1706918;83;20132;-59
2022/09/11 05:11:30;;;;;;;8.08;6.03;;;;;;;12.04;100.00;99289.13;1709581;82;20947;-60
2022/09/11 05:14:02;;;;;;;8.08;6.10;;;;;;;11.95;100.00;99271.38;1692631;83;20911;-60
2022/09/11 05:16:27;;;;;;;10.50;6.33;;;;;;;12.03;100.00;99287.47;1668278;83;20935;-59
2022/09/11 05:18:56;;;;;;;6.70;5.75;;;;;;;11.96;100.00;99273.05;1692650;84;21105;-59
2022/09/11 05:21:24;;;;;;;8.85;6.42;;;;;;;12.13;100.00;99293.84;1703122;83;20962;-59
2022/09/11 05:23:54;;;;;;;7.60;6.37;;;;;;;12.13;100.00;99293.84;1671495;84;20911;-60
2022/09/11 05:26:30;;;;;;;9.33;6.58;;;;;;;12.12;100.00;99292.13;1692568;83;21374;-59
2022/09/11 05:29:01;;;;;;;7.03;6.13;;;;;;;12.07;100.00;99291.56;1708233;83;21444;-59
2022/09/11 05:31:28;;;;;;;12.37;6.97;;;;;;;12.14;100.00;99292.89;1694189;84;21051;-59
2022/09/11 05:33:56;;;;;;;8.73;6.25;;;;;;;12.14;100.00;99292.89;1713442;82;21543;-60
2022/09/11 05:36:23;;;;;;;9.75;5.55;;;;;;;12.16;100.00;99296.27;1710251;82;20908;-60
2022/09/11 05:38:51;;;;;;;6.95;5.85;;;;;;;12.25;100.00;99292.25;1692351;83;20935;-59
2022/09/11 05:41:17;;;;;;;;;;;;;;;12.26;100.00;99294.75;1672976;84;21501;-61
2022/09/11 05:43:44;;;;;;;8.93;6.22;;;;;;;12.25;100.00;99299.63;1693316;83;21057;-60
2022/09/11 05:46:15;;;;;;;8.30;6.28;;;;;;;12.26;100.00;99303.08;1706370;83;21417;-59
2022/09/11 05:48:42;;;;;;;9.93;6.30;;;;;;;12.17;100.00;99302.34;1693626;83;20939;-61
2022/09/11 05:51:18;;;;;;;;;;;;;;;12.21;100.00;99303.38;1688164;84;21480;-59
2022/09/11 05:53:49;;;;;;;10.08;5.75;;;;;;;12.18;100.00;99301.39;1687556;83;20111;-59
2022/09/11 05:56:18;;;;;;;6.92;5.97;;;;;;;12.15;100.00;99307.65;1696741;83;21560;-60
2022/09/11 05:58:46;;;;;;;9.43;6.17;;;;;;;12.08;100.00;99311.59;1712603;82;21650;-59
2022/09/11 06:01:19;;;;;;;7.55;5.37;;;;;;;12.05;100.00;99309.16;1704716;83;21050;-60
2022/09/11 06:03:48;;;;;;;11.33;6.25;;;;;;;12.15;100.00;99308.95;1705342;83;21487;-62
2022/09/11 06:06:17;;;;;;;8.50;5.53;;;;;;;12.08;100.00;99303.27;1693019;84;20950;-60
2022/09/11 06:08:44;;;;;;;7.53;5.72;;;;;;;12.18;100.00;99315.31;1689456;84;21154;-59
2022/09/11 06:11:13;;;;;;;7.50;5.47;;;;;;;12.22;100.00;99315.99;1689794;83;20935;-60
2022/09/11 06:13:42;;;;;;;8.08;5.40;;;;;;;12.24;100.00;99314.97;1661718;85;20962;-60
2022/09/11 06:16:12;;;;;;;8.43;6.05;;;;;;;12.21;100.00;99315.16;1690159;84;20990;-61
2022/09/11 06:18:39;;;;;;;10.28;5.97;;;;;;;12.18;100.00;99312.70;1671125;85;20950;-60
2022/09/11 06:21:11;;;;;;;8.90;5.85;;;;;;;12.18;100.00;99321.86;1684332;84;20949;-60
2022/09/11 06:23:38;;;;;;;9.75;6.25;;;;;;;12.17;100.00;99318.88;1667530;84;20912;-60
2022/09/11 06:26:09;;;;;;;6.75;5.62;;;;;;;12.26;100.00;99320.92;1673431;84;20952;-59
2022/09/11 06:28:37;;;;;;;7.70;5.50;;;;;;;12.29;100.00;99315.53;1660803;85;20922;-60
2022/09/11 06:31:16;;;;;;;9.28;5.80;;;;;;;12.37;100.00;99316.83;1669664;85;20933;-60
2022/09/11 06:33:44;;;;;;;8.75;5.58;;;;;;;12.42;100.00;99317.39;1691033;84;21153;-60
2022/09/11 06:36:25;;;;;;;7.80;5.37;;;;;;;12.49;100.00;99323.92;1687225;84;20949;-60
2022/09/11 06:38:54;;;;;;;10.58;6.20;;;;;;;12.58;100.00;99322.06;1687421;84;21494;-60
2022/09/11 06:41:21;;;;;;;11.05;6.33;;;;;;;12.69;100.00;99330.09;1720599;81;20973;-61
2022/09/11 06:43:59;;;;;;;10.98;5.97;;;;;;;12.72;99.96;99327.28;1724006;81;21777;-63
2022/09/11 06:46:26;;;;;;;8.08;5.72;;;;;;;12.80;99.90;99320.27;1718408;81;21095;-61
2022/09/11 06:48:55;;;;;;;6.85;5.67;;;;;;;12.87;99.75;99320.70;1720588;82;21075;-61
2022/09/11 06:51:22;;;;;;;11.95;5.90;;;;;;;12.96;99.61;99324.88;1719851;82;20942;-60
2022/09/11 06:54:01;;;;;;;9.00;5.40;;;;;;;13.08;99.98;99321.98;1722690;82;20969;-61
2022/09/11 06:56:25;;;;;;;9.05;5.70;;;;;;;13.15;99.65;99322.41;1720765;82;21026;-60
2022/09/11 06:58:52;;;;;;;7.37;5.53;;;;;;;13.15;99.35;99325.03;1723229;82;21049;-60
2022/09/11 07:01:20;;;;;;;7.85;5.92;;;;;;;13.12;98.97;99330.00;1722864;82;20941;-60
2022/09/11 07:03:53;;;;;;;8.08;5.92;;;;;;;13.09;98.68;99324.95;1721150;82;20977;-60
2022/09/11 07:06:26;;;;;;;9.70;5.90;;;;;;;13.12;99.05;99319.99;1745180;80;22205;-61
2022/09/11 07:09:02;;;;;;;10.08;6.40;;;;;;;13.18;98.92;99328.77;1685567;84;20946;-61
2022/09/11 07:11:35;;;;;;;8.30;5.55;;;;;;;13.15;98.28;99336.36;1700417;83;21914;-61
2022/09/11 07:14:05;;;;;;;7.85;5.75;;;;;;;13.20;99.00;99329.05;1702573;83;21013;-61
2022/09/11 07:16:33;;;;;;;10.63;6.15;;;;;;;13.21;99.21;99330.71;1689742;83;20950;-61
2022/09/11 07:19:02;;;;;;;9.05;6.08;;;;;;;13.21;98.81;99329.87;1701422;82;20974;-61
2022/09/11 07:21:30;;;;;;;8.55;5.85;;;;;;;13.26;98.86;99332.25;1696674;83;21005;-61
2022/09/11 07:23:59;;;;;;;9.20;6.03;;;;;;;13.32;98.55;99330.06;1698227;83;21073;-61
2022/09/11 07:26:28;;;;;;;8.40;6.08;;;;;;;13.31;98.13;99326.23;1699488;83;21445;-60
2022/09/11 07:28:58;;;;;;;11.18;6.50;;;;;;;13.27;97.90;99320.80;1701525;82;21660;-60
2022/09/11 07:31:28;;;;;;;8.15;6.03;;;;;;;13.29;98.08;99321.56;1704251;83;20938;-60
2022/09/11 07:33:55;;;;;;;7.22;5.83;;;;;;;13.34;97.70;99328.66;1708160;82;20985;-60
2022/09/11 07:36:25;;;;;;;7.33;5.95;;;;;;;13.43;97.86;99321.02;1704933;83;21076;-60
2022/09/11 07:38:56;;;;;;;7.95;5.80;;;;;;;13.54;97.71;99330.81;1705857;83;20911;-61
2022/09/11 07:41:24;;;;;;;7.30;5.60;;;;;;;13.63;97.50;99326.27;1707083;82;21480;-61
2022/09/11 07:43:58;;;;;;;10.32;6.05;;;;;;;13.82;98.33;99322.43;1686206;83;20966;-60
2022/09/11 07:46:25;;;;;;;6.55;5.85;;;;;;;13.95;98.05;99325.05;1688397;83;20945;-60
2022/09/11 07:48:54;;;;;;;9.63;5.90;;;;;;;14.00;97.11;99323.83;1689071;83;21897;-60
2022/09/11 07:51:21;;;;;;;7.70;5.67;;;;;;;14.01;96.63;99324.19;1712238;82;20985;-60
2022/09/11 07:53:53;;;;;;;7.25;5.45;;;;;;;13.92;96.18;99320.88;1685412;84;20959;-61
2022/09/11 07:56:23;;;;;;;6.58;4.87;;;;;;;14.08;97.02;99326.74;1683470;83;20959;-60
2022/09/11 07:58:53;;;;;;;7.53;5.12;;;;;;;14.24;96.59;99325.71;1695410;83;20978;-60
2022/09/11 08:01:24;;;;;;;8.95;5.47;;;;;;;14.43;97.25;99320.88;1711107;83;21037;-60
2022/09/11 08:03:57;;;;;;;7.65;4.80;;;;;;;14.64;95.57;99326.91;1685254;84;20983;-61
2022/09/11 08:06:27;;;;;;;6.67;4.47;;;;;;;14.68;95.89;99327.08;1710514;82;20954;-61
2022/09/11 08:08:57;;;;;;;9.25;4.67;;;;;;;14.77;96.97;99324.63;1697012;83;20985;-61
2022/09/11 08:11:26;;;;;;;6.85;5.20;;;;;;;14.91;97.18;99323.64;1711789;82;20938;-61
2022/09/11 08:13:54;;;;;;;6.08;3.95;;;;;;;15.21;97.80;99332.91;1704907;81;21053;-61
2022/09/11 08:16:25;;;;;;;8.38;4.10;;;;;;;15.33;95.27;99329.38;1716750;82;20899;-60
2022/09/11 08:18:52;;;;;;;4.22;3.72;;;;;;;15.28;95.15;99324.92;1700978;83;20899;-61
2022/09/11 08:21:22;;;;;;;6.85;4.03;;;;;;;15.50;95.99;99323.36;1700613;83;20922;-60
2022/09/11 08:23:49;;;;;;;8.15;4.05;;;;;;;15.82;97.34;99325.78;1692357;82;20954;-61
2022/09/11 08:26:20;;;;;;;4.85;3.52;;;;;;;15.94;93.27;99327.13;1690873;82;21067;-61
2022/09/11 08:28:51;;;;;;;8.13;4.53;;;;;;;15.93;93.82;99325.43;1702589;83;20950;-60
2022/09/11 08:31:21;;;;;;;7.53;3.92;;;;;;;15.96;94.34;99323.88;1691892;83;20927;-60
2022/09/11 08:33:48;;;;;;;7.58;3.58;;;;;;;16.00;93.72;99324.03;1697320;83;20918;-60
2022/09/11 08:36:16;;;;;;;5.03;3.20;;;;;;;16.03;93.94;99329.05;1690530;84;20982;-60
2022/09/11 08:38:43;;;;;;;5.90;3.60;;;;;;;16.04;93.14;99329.41;1700470;82;21126;-60
2022/09/11 08:41:25;;;;;;;6.35;3.30;;;;;;;16.18;93.22;99326.55;1701097;82;20969;-61
2022/09/11 08:44:10;;;;;;;5.65;3.55;;;;;;;16.25;91.53;99330.89;1675858;84;20969;-60
2022/09/11 08:46:42;;;;;;;5.65;3.35;;;;;;;16.27;90.12;99324.55;1697399;82;21490;-60
2022/09/11 08:49:34;;;;;;;3.92;2.70;;;;;;;16.24;88.24;99331.34;1696846;82;20965;-61
2022/09/11 08:52:04;;;;;;;5.50;2.90;;;;;;;16.40;90.32;99330.17;1702016;83;21383;-61
2022/09/11 08:54:35;;;;;;;5.05;2.70;;;;;;;16.55;90.18;99327.20;1701211;83;21433;-60
2022/09/11 08:57:23;;;;;;;4.65;2.50;;;;;;;16.88;92.28;99322.86;1700637;83;20899;-60
2022/09/11 09:00:20;;;;;;;4.92;2.22;;;;;;;17.05;83.91;99326.79;1702721;83;20970;-60
2022/09/11 09:03:01;;;;;;;4.70;2.05;;;;;;;16.93;86.28;99338.33;1699419;83;20938;-61
2022/09/11 09:06:14;;;;;;;3.98;1.80;;;;;;;16.57;83.92;99328.38;1699185;83;21122;-61
2022/09/11 09:08:49;;;;;;;3.75;1.65;;;;;;;16.24;81.88;99339.25;1694983;84;20958;-61
2022/09/11 09:11:36;;;;;;;2.77;1.45;;;;;;;16.08;84.54;99338.77;1693554;84;20960;-60
2022/09/11 09:14:08;;;;;;;;;;;;;;;16.22;84.82;99343.81;1697463;83;20918;-61
2022/09/11 09:16:50;;;;;;;3.87;1.50;;;;;;;16.29;81.89;99348.95;1690156;84;20123;-60
2022/09/11 09:19:41;;;;;;;2.65;1.45;;;;;;;16.55;79.73;99347.41;1693977;82;21149;-61
2022/09/11 09:22:22;;;;;;;2.02;1.40;;;;;;;16.24;77.99;99352.42;1672984;84;20966;-61
2022/09/11 09:24:53;;;;;;;4.45;1.60;;;;;;;16.25;76.99;99348.84;1693768;84;20956;-61
2022/09/11 09:27:33;;;;;;;3.20;1.52;;;;;;;16.33;77.93;99350.42;1699459;84;20946;-61
2022/09/11 09:30:10;;;;;;;4.42;1.52;;;;;;;16.27;78.67;99345.63;1685325;84;20954;-60
2022/09/11 09:33:00;;;;;;;3.10;1.27;;;;;;;16.54;76.17;99339.99;1685706;83;21054;-61
2022/09/11 09:35:42;;;;;;;4.92;1.32;;;;;;;16.63;77.81;99346.83;1672762;84;20969;-60
2022/09/11 09:38:20;;;;;;;4.17;1.52;;;;;;;16.85;80.05;99340.73;1670082;84;21476;-60
2022/09/11 09:41:32;;;;;;;1.85;1.40;;;;;;;16.84;77.53;99336.44;1684029;83;20966;-60
2022/09/11 09:44:29;;;;;;;2.47;1.25;;;;;;;17.07;75.28;99351.25;1685788;84;20993;-60
2022/09/11 09:46:56;;;;;;;6.80;1.85;;;;;;;16.80;64.43;99360.03;1664301;84;22045;-60
2022/09/11 09:49:35;;;;;;;5.60;1.60;;;;;;;16.46;68.32;99348.14;1676999;83;20995;-60
2022/09/11 09:52:21;;;;;;;6.08;1.30;;;;;;;16.29;71.56;99352.91;1657121;85;20992;-60
2022/09/11 09:55:01;;;;;;;1.90;1.30;;;;;;;16.55;71.12;99356.19;1679421;85;20938;-60
2022/09/11 09:57:35;;;;;;;3.08;1.25;;;;;;;16.57;67.45;99366.59;1677967;83;20955;-60
2022/09/11 10:00:18;;;;;;;2.95;1.40;;;;;;;16.87;70.27;99359.92;1660728;83;21878;-60
2022/09/11 10:02:53;;;;;;;4.05;1.57;;;;;;;16.93;68.75;99362.06;1641950;85;21518;-60
2022/09/11 10:05:31;;;;;;;5.22;1.50;;;;;;;16.71;67.58;99355.80;1664058;84;21038;-60
2022/09/11 10:08:02;;;;;;;1.90;1.35;;;;;;;16.49;64.88;99361.08;1660988;85;20909;-60
2022/09/11 10:10:35;;;;;;;2.47;1.40;;;;;;;16.53;69.78;99367.80;1621970;86;21540;-60
2022/09/11 10:13:12;;;;;;;3.27;1.22;;;;;;;16.58;68.95;99347.20;1624952;85;21067;-60
2022/09/11 10:15:41;;;;;;;2.27;1.70;;;;;;;16.56;64.29;99357.02;1633713;85;20956;-60
2022/09/11 10:18:34;;;;;;;2.95;1.40;;;;;;;16.38;65.43;99359.75;1657156;85;20978;-60
2022/09/11 10:21:32;;;;;;;5.55;2.00;;;;;;;16.18;63.19;99360.80;1669260;85;21552;-59
2022/09/11 10:24:18;;;;;;;8.88;1.90;;;;;;;16.37;66.77;99362.87;1657065;85;20968;-60
2022/09/11 10:26:49;;;;;;;4.83;1.40;;;;;;;16.32;66.56;99364.52;1688399;84;24136;-61
2022/09/11 10:29:23;;;;;;;2.75;1.40;;;;;;;16.41;64.68;99364.78;1670445;85;20981;-61
2022/09/11 10:31:54;;;;;;;4.55;1.17;;;;;;;16.49;65.76;99362.39;1681928;84;21506;-60
2022/09/11 10:34:25;;;;;;;3.45;1.50;;;;;;;16.62;66.75;99360.97;1667472;84;20998;-60
2022/09/11 10:37:06;;;;;;;2.27;1.50;;;;;;;16.46;62.49;99364.78;1697771;84;20968;-59
2022/09/11 10:39:36;;;;;;;2.35;1.40;;;;;;;16.32;62.44;99364.52;1680121;83;22056;-60
2022/09/11 10:42:21;;;;;;;3.20;1.35;;;;;;;16.38;63.26;99392.68;1671690;84;20932;-60
2022/09/11 10:44:51;;;;;;;2.98;1.42;;;;;;;16.41;63.26;99381.91;1650631;84;20958;-61
2022/09/11 10:47:24;;;;;;;3.08;1.50;;;;;;;16.47;62.71;99374.39;1680889;83;20962;-61
2022/09/11 10:50:19;;;;;;;6.70;1.50;;;;;;;16.55;61.54;99368.50;1664197;83;21949;-61
2022/09/11 10:53:03;;;;;;;4.95;1.45;;;;;;;16.49;60.92;99386.11;1690178;84;21000;-61
2022/09/11 10:55:39;;;;;;;4.08;1.57;;;;;;;16.40;58.43;99377.60;1687659;84;20875;-61
2022/09/11 10:58:16;;;;;;;4.12;1.52;;;;;;;16.34;61.04;99361.30;1696085;84;20965;-61
2022/09/11 11:00:44;;;;;;;2.83;1.42;;;;;;;16.53;62.92;99365.16;1691287;83;21017;-61
2022/09/11 11:03:21;;;;;;;4.53;1.75;;;;;;;16.63;61.54;99366.11;1668078;85;21541;-61
2022/09/11 11:06:22;;;;;;;4.58;1.52;;;;;;;16.63;61.54;99366.11;1684216;83;21477;-61
2022/09/11 11:08:58;;;;;;;5.78;1.80;;;;;;;16.55;62.22;99365.86;1711830;83;20938;-60
2022/09/11 11:11:31;;;;;;;5.55;1.30;;;;;;;16.55;60.75;99373.77;1689334;84;21450;-60
2022/09/11 11:14:15;;;;;;;7.08;1.40;;;;;;;16.42;60.35;99371.27;1710927;83;21505;-61
2022/09/11 11:17:17;;;;;;;4.75;1.50;;;;;;;16.24;61.57;99360.32;1690850;84;20950;-61
2022/09/11 11:20:07;;;;;;;4.08;1.55;;;;;;;16.04;59.71;99368.91;1665768;85;21125;-61
2022/09/11 11:23:17;;;;;;;3.37;1.75;;;;;;;15.92;61.75;99377.73;1679506;83;20970;-61
2022/09/11 11:25:56;;;;;;;3.52;1.65;;;;;;;15.85;61.14;99371.62;1685718;84;21505;-60
2022/09/11 11:28:47;;;;;;;3.30;1.35;;;;;;;15.89;61.57;99377.00;1683469;83;20983;-61
2022/09/11 11:31:19;;;;;;;3.52;1.32;;;;;;;15.80;62.15;99377.70;1694892;82;20993;-59
2022/09/11 11:34:42;;;;;;;4.05;1.77;;;;;;;15.84;60.89;99376.50;1700802;83;21961;-61
2022/09/11 11:37:20;;;;;;;1.17;1.00;;;;;;;15.79;61.80;99376.00;1694253;82;20914;-60
2022/09/11 11:40:01;;;;;;;3.60;1.35;;;;;;;15.83;62.55;99372.20;1705517;83;21440;-61
2022/09/11 11:42:36;;;;;;;3.27;1.65;;;;;;;15.77;62.62;99379.25;1703220;82;20938;-60
2022/09/11 11:45:20;;;;;;;4.65;1.70;;;;;;;15.76;62.65;99376.23;1700552;83;20962;-61
2022/09/11 11:47:50;;;;;;;8.20;1.40;;;;;;;15.73;61.33;99379.09;1696131;82;21127;-60
2022/09/11 11:50:42;;;;;;;3.22;1.57;;;;;;;15.66;60.57;99373.42;1698197;82;20985;-61
2022/09/11 11:53:37;;;;;;;3.55;1.72;;;;;;;15.62;62.12;99372.44;1697926;83;20902;-61
2022/09/11 11:56:44;;;;;;;4.60;1.35;;;;;;;15.61;60.62;99364.19;1695746;82;20954;-61
2022/09/11 11:59:30;;;;;;;3.17;1.70;;;;;;;15.77;63.00;99375.30;1710362;83;21002;-60
2022/09/11 12:02:10;;;;;;;3.55;1.30;;;;;;;15.77;61.55;99380.56;1694303;84;21075;-60